createdAt,value
2024-05-09T00:02:22.793Z,9.40
2024-05-09T00:04:52.883Z,9.30
2024-05-09T00:07:25.696Z,9.30
2024-05-09T00:09:55.526Z,9.30
2024-05-09T00:12:25.628Z,9.30
2024-05-09T00:14:55.527Z,9.20
2024-05-09T00:17:25.928Z,9.20
2024-05-09T00:19:56.159Z,9.20
2024-05-09T00:22:28.851Z,9.10
2024-05-09T00:24:58.711Z,9.10
2024-05-09T00:27:28.962Z,9.10
2024-05-09T00:29:58.826Z,9.10
2024-05-09T00:32:29.102Z,9.10
2024-05-09T00:34:59.162Z,9.10
2024-05-09T00:37:31.808Z,9.00
2024-05-09T00:40:01.665Z,9.00
2024-05-09T00:42:31.690Z,9.00
2024-05-09T00:45:01.454Z,9.00
2024-05-09T00:47:31.710Z,8.90
2024-05-09T00:50:02.418Z,8.90
2024-05-09T00:52:35.917Z,8.90
2024-05-09T00:55:05.815Z,8.90
2024-05-09T00:57:36.729Z,8.90
2024-05-09T01:00:12.175Z,8.80
2024-05-09T01:02:48.650Z,8.80
2024-05-09T01:05:19.047Z,8.80
2024-05-09T01:07:51.897Z,8.80
2024-05-09T01:10:27.980Z,8.80
2024-05-09T01:13:03.982Z,8.80
2024-05-09T01:15:34.256Z,8.70
2024-05-09T01:18:10.473Z,8.70
2024-05-09T01:20:44.044Z,8.70
2024-05-09T01:23:18.149Z,8.70
2024-05-09T01:25:48.470Z,8.60
2024-05-09T01:28:18.576Z,8.60
2024-05-09T01:30:48.480Z,8.60
2024-05-09T01:33:18.749Z,8.50
2024-05-09T01:35:48.718Z,8.50
2024-05-09T01:38:21.384Z,8.50
2024-05-09T01:40:51.575Z,8.40
2024-05-09T01:43:21.698Z,8.40
2024-05-09T01:45:51.536Z,8.40
2024-05-09T01:48:21.788Z,8.40
2024-05-09T01:50:51.855Z,8.40
2024-05-09T01:53:24.641Z,8.30
2024-05-09T01:55:54.570Z,8.30
2024-05-09T01:58:24.849Z,8.30
2024-05-09T02:00:56.729Z,8.30
2024-05-09T02:03:26.999Z,8.20
2024-05-09T02:05:56.970Z,8.20
2024-05-09T02:08:29.615Z,8.20
2024-05-09T02:10:59.700Z,8.10
2024-05-09T02:13:29.793Z,8.10
2024-05-09T02:15:59.636Z,8.10
2024-05-09T02:18:29.741Z,8.10
2024-05-09T02:20:59.902Z,8.10
2024-05-09T02:23:32.784Z,8.10
2024-05-09T02:26:02.730Z,8.10
2024-05-09T02:28:32.891Z,8.10
2024-05-09T02:31:02.772Z,8.10
2024-05-09T02:33:33.266Z,8.10
2024-05-09T02:36:00.763Z,8.10
2024-05-09T02:38:33.442Z,8.00
2024-05-09T02:41:00.875Z,8.00
2024-05-09T02:43:31.747Z,8.00
2024-05-09T02:45:59.228Z,8.00
2024-05-09T02:48:29.155Z,8.00
2024-05-09T02:50:56.626Z,8.00
2024-05-09T02:53:26.583Z,8.10
2024-05-09T02:55:56.540Z,8.00
2024-05-09T02:58:26.899Z,8.00
2024-05-09T03:00:54.203Z,8.00
2024-05-09T03:03:24.585Z,8.00
2024-05-09T03:05:52.345Z,8.00
2024-05-09T03:08:22.261Z,7.90
2024-05-09T03:10:49.711Z,7.90
2024-05-09T03:13:22.335Z,7.90
2024-05-09T03:15:50.608Z,7.90
2024-05-09T03:18:20.529Z,7.80
2024-05-09T03:20:48.118Z,7.80
2024-05-09T03:23:18.149Z,7.80
2024-05-09T03:25:45.538Z,7.80
2024-05-09T03:28:15.500Z,7.70
2024-05-09T03:30:45.374Z,7.70
2024-05-09T03:33:19.418Z,7.70
2024-05-09T03:35:48.258Z,7.70
2024-05-09T03:38:18.718Z,7.70
2024-05-09T03:40:50.236Z,7.70
2024-05-09T03:43:21.596Z,7.70
2024-05-09T03:45:54.124Z,7.70
2024-05-09T03:48:21.804Z,7.60
2024-05-09T03:50:51.897Z,7.70
2024-05-09T03:53:20.695Z,7.70
2024-05-09T03:55:50.678Z,7.60
2024-05-09T03:58:19.089Z,7.70
2024-05-09T04:00:49.250Z,7.70
2024-05-09T04:03:19.710Z,7.70
2024-05-09T04:05:50.869Z,7.70
2024-05-09T04:08:18.749Z,7.80
2024-05-09T04:10:48.756Z,7.80
2024-05-09T04:13:16.108Z,7.80
2024-05-09T04:15:46.488Z,7.80
2024-05-09T04:18:14.240Z,7.90
2024-05-09T04:20:46.854Z,7.90
2024-05-09T04:23:15.067Z,7.90
2024-05-09T04:25:46.924Z,8.00
2024-05-09T04:28:14.802Z,8.00
2024-05-09T04:30:44.811Z,8.10
2024-05-09T04:33:15.361Z,8.10
2024-05-09T04:35:49.577Z,8.20
2024-05-09T04:38:17.066Z,8.30
2024-05-09T04:40:47.140Z,8.40
2024-05-09T04:43:15.777Z,8.40
2024-05-09T04:45:46.180Z,8.50
2024-05-09T04:48:13.754Z,8.60
2024-05-09T04:50:44.178Z,8.70
2024-05-09T04:53:16.389Z,8.80
2024-05-09T04:55:46.663Z,8.90
2024-05-09T04:58:14.246Z,9.00
2024-05-09T05:00:45.966Z,9.10
2024-05-09T05:03:15.676Z,9.30
2024-05-09T05:05:47.072Z,9.40
2024-05-09T05:08:19.053Z,9.60
2024-05-09T05:10:50.309Z,9.70
2024-05-09T05:13:20.290Z,9.90
2024-05-09T05:15:53.584Z,10.10
2024-05-09T05:18:22.315Z,10.30
2024-05-09T05:20:52.616Z,10.40
2024-05-09T05:23:23.955Z,10.60
2024-05-09T05:25:57.200Z,10.80
2024-05-09T05:28:24.834Z,11.00
2024-05-09T05:30:54.635Z,11.20
2024-05-09T05:33:23.021Z,11.40
2024-05-09T05:35:53.383Z,11.50
2024-05-09T05:38:27.256Z,11.70
2024-05-09T05:40:58.512Z,11.80
2024-05-09T05:43:26.724Z,11.90
2024-05-09T05:45:56.543Z,12.10
2024-05-09T05:48:24.282Z,12.20
2024-05-09T05:50:54.400Z,12.30
2024-05-09T05:53:24.449Z,12.40
2024-05-09T05:55:54.540Z,12.50
2024-05-09T05:58:22.559Z,12.70
2024-05-09T06:00:54.984Z,12.80
2024-05-09T06:03:22.452Z,12.90
2024-05-09T06:05:52.376Z,13.10
2024-05-09T06:08:20.076Z,13.20
2024-05-09T06:10:52.635Z,13.40
2024-05-09T06:13:20.662Z,13.50
2024-05-09T06:15:50.423Z,13.60
2024-05-09T06:18:18.117Z,13.70
2024-05-09T06:20:48.418Z,13.80
2024-05-09T06:23:15.864Z,13.90
2024-05-09T06:25:45.733Z,14.00
2024-05-09T06:28:15.887Z,14.20
2024-05-09T06:30:45.793Z,14.30
2024-05-09T06:33:15.235Z,14.40
2024-05-09T06:35:46.913Z,14.50
2024-05-09T06:38:14.611Z,14.60
2024-05-09T06:40:44.985Z,14.70
2024-05-09T06:43:17.936Z,14.80
2024-05-09T06:45:49.574Z,15.00
2024-05-09T06:48:19.293Z,15.10
2024-05-09T06:50:50.136Z,15.30
2024-05-09T06:53:20.500Z,15.50
2024-05-09T06:55:50.498Z,15.70
2024-05-09T06:58:20.440Z,16.00
2024-05-09T07:00:50.383Z,16.20
2024-05-09T07:03:19.197Z,16.40
2024-05-09T07:05:50.402Z,16.60
2024-05-09T07:08:17.962Z,16.70
2024-05-09T07:10:48.122Z,16.90
2024-05-09T07:13:16.124Z,17.20
2024-05-09T07:15:48.566Z,17.50
2024-05-09T07:18:18.482Z,17.80
2024-05-09T07:20:50.697Z,18.10
2024-05-09T07:23:18.856Z,18.30
2024-05-09T07:25:48.972Z,18.50
2024-05-09T07:28:18.163Z,18.70
2024-05-09T07:30:50.832Z,18.90
2024-05-09T07:33:18.752Z,19.10
2024-05-09T07:35:49.145Z,19.20
2024-05-09T07:38:16.715Z,19.40
2024-05-09T07:40:46.764Z,19.60
2024-05-09T07:43:15.277Z,19.70
2024-05-09T07:45:52.023Z,19.90
2024-05-09T07:53:39.964Z,20.10
2024-05-09T07:56:15.413Z,20.40
2024-05-09T07:58:44.085Z,20.70
2024-05-09T08:01:13.954Z,20.80
2024-05-09T08:03:45.068Z,20.90
2024-05-09T08:06:15.340Z,20.90
2024-05-09T08:08:42.810Z,21.00
2024-05-09T08:11:12.776Z,21.10
2024-05-09T08:13:40.136Z,21.20
2024-05-09T08:16:12.564Z,21.40
2024-05-09T08:18:40.554Z,21.50
2024-05-09T08:21:13.217Z,21.80
2024-05-09T08:23:40.517Z,22.00
2024-05-09T08:26:10.272Z,22.30
2024-05-09T08:28:39.009Z,22.40
2024-05-09T08:31:10.313Z,22.60
2024-05-09T08:33:43.591Z,22.70
2024-05-09T08:36:16.460Z,22.90
2024-05-09T08:38:43.964Z,23.00
2024-05-09T08:41:16.632Z,23.10
2024-05-09T08:43:44.955Z,23.30
2024-05-09T08:46:15.787Z,23.50
2024-05-09T08:48:45.795Z,23.70
2024-05-09T08:51:20.039Z,24.00
2024-05-09T08:53:47.349Z,24.30
2024-05-09T08:56:18.955Z,24.50
2024-05-09T09:01:39.305Z,25.00
2024-05-09T09:04:10.332Z,25.20
2024-05-09T09:06:43.259Z,25.20
2024-05-09T09:09:12.135Z,25.40
2024-05-09T09:11:42.054Z,25.70
2024-05-09T09:14:09.471Z,26.00
2024-05-09T09:16:39.765Z,26.30
2024-05-09T09:19:07.248Z,26.40
2024-05-09T09:21:37.357Z,26.60
2024-05-09T09:24:09.998Z,26.90
2024-05-09T09:26:40.648Z,27.10
2024-05-09T09:29:08.167Z,27.40
2024-05-09T09:31:39.475Z,27.70
2024-05-09T09:34:07.807Z,27.80
2024-05-09T09:36:41.506Z,28.10
2024-05-09T09:39:17.040Z,28.40
2024-05-09T09:41:49.471Z,28.90
2024-05-09T09:44:19.307Z,29.10
2024-05-09T09:46:49.956Z,29.20
2024-05-09T09:49:18.467Z,29.20
2024-05-09T09:51:49.068Z,29.00
2024-05-09T09:54:20.428Z,28.70
2024-05-09T09:56:51.152Z,28.30
2024-05-09T09:59:19.527Z,28.00
2024-05-09T10:01:49.618Z,28.00
2024-05-09T10:04:19.009Z,28.30
2024-05-09T10:06:53.196Z,28.80
2024-05-09T10:09:23.344Z,29.10
2024-05-09T10:11:59.976Z,29.60
2024-05-09T10:14:30.941Z,29.90
2024-05-09T10:17:07.303Z,30.30
2024-05-09T10:19:35.308Z,30.90
2024-05-09T10:22:06.592Z,31.00
2024-05-09T10:24:53.473Z,31.20
2024-05-09T10:27:29.642Z,32.00
2024-05-09T10:29:58.374Z,33.70
2024-05-09T10:32:30.664Z,35.20
2024-05-09T10:35:05.535Z,35.40
2024-05-09T10:37:36.551Z,35.20
2024-05-09T10:40:14.069Z,35.80
2024-05-09T10:42:47.857Z,36.80
2024-05-09T10:45:16.611Z,36.30
2024-05-09T10:47:46.589Z,36.40
2024-05-09T10:50:22.245Z,37.50
2024-05-09T10:52:58.147Z,38.80
2024-05-09T10:55:28.133Z,40.30
2024-05-09T10:57:58.249Z,41.50
2024-05-09T11:00:35.673Z,42.60
2024-05-09T11:03:07.100Z,43.80
2024-05-09T11:05:35.835Z,44.70
2024-05-09T11:08:06.215Z,45.40
2024-05-09T11:10:36.615Z,45.90
2024-05-09T11:13:07.918Z,46.20
2024-05-09T11:15:39.515Z,46.90
2024-05-09T11:18:09.668Z,47.40
2024-05-09T11:20:38.019Z,48.10
2024-05-09T11:23:08.484Z,48.70
2024-05-09T11:25:38.474Z,49.10
2024-05-09T11:28:10.124Z,49.50
2024-05-09T11:30:37.503Z,49.80
2024-05-09T11:33:08.017Z,50.00
2024-05-09T11:35:35.422Z,48.60
2024-05-09T11:38:05.454Z,46.30
2024-05-09T11:40:34.591Z,44.60
2024-05-09T11:43:08.056Z,43.60
2024-05-09T11:45:35.459Z,42.70
2024-05-09T11:48:06.822Z,41.50
2024-05-09T11:50:35.983Z,40.50
2024-05-09T11:53:06.263Z,40.00
2024-05-09T11:55:36.328Z,39.50
2024-05-09T11:58:10.605Z,39.20
2024-05-09T12:00:38.531Z,38.80
2024-05-09T12:03:08.834Z,38.30
2024-05-09T12:05:37.378Z,37.60
2024-05-09T12:08:07.999Z,36.60
2024-05-09T12:10:36.757Z,36.10
2024-05-09T12:13:10.094Z,36.80
2024-05-09T12:15:38.583Z,38.50
2024-05-09T12:18:09.618Z,39.90
2024-05-09T12:20:39.505Z,40.70
2024-05-09T12:23:11.254Z,41.20
2024-05-09T12:25:40.431Z,40.90
2024-05-09T12:28:12.991Z,40.40
2024-05-09T12:30:41.602Z,40.10
2024-05-09T12:33:13.261Z,40.30
2024-05-09T12:35:44.301Z,40.90
2024-05-09T12:38:17.378Z,40.50
2024-05-09T12:40:44.848Z,39.50
2024-05-09T12:43:17.471Z,38.30
2024-05-09T12:45:45.047Z,37.10
2024-05-09T12:48:15.040Z,36.40
2024-05-09T12:50:42.587Z,36.70
2024-05-09T12:53:12.719Z,37.60
2024-05-09T12:55:48.116Z,38.50
2024-05-09T12:58:26.648Z,39.50
2024-05-09T13:00:53.889Z,40.40
2024-05-09T13:03:24.273Z,40.90
2024-05-09T13:05:52.303Z,40.60
2024-05-09T13:08:23.002Z,40.30
2024-05-09T13:10:50.653Z,39.50
2024-05-09T13:13:20.724Z,38.40
2024-05-09T13:15:50.724Z,37.50
2024-05-09T13:18:21.067Z,36.90
2024-05-09T13:20:48.389Z,36.40
2024-05-09T13:23:19.632Z,35.90
2024-05-09T13:25:47.208Z,36.40
2024-05-09T13:28:17.258Z,37.90
2024-05-09T13:30:44.729Z,39.70
2024-05-09T13:33:17.448Z,40.50
2024-05-09T13:35:48.952Z,41.50
2024-05-09T13:38:22.027Z,42.20
2024-05-09T13:40:50.340Z,41.50
2024-05-09T13:43:22.284Z,40.10
2024-05-09T13:45:50.164Z,38.70
2024-05-09T13:48:23.712Z,38.00
2024-05-09T13:50:51.116Z,37.50
2024-05-09T13:53:20.951Z,37.30
2024-05-09T13:55:48.881Z,37.70
2024-05-09T13:58:19.093Z,38.60
2024-05-09T14:00:48.951Z,38.80
2024-05-09T14:03:22.768Z,39.40
2024-05-09T14:05:53.054Z,40.30
2024-05-09T14:08:22.436Z,40.10
2024-05-09T14:10:54.032Z,39.60
2024-05-09T14:13:21.616Z,39.70
2024-05-09T14:15:51.889Z,40.20
2024-05-09T14:18:24.865Z,40.40
2024-05-09T14:20:52.131Z,40.00
2024-05-09T14:23:22.029Z,39.00
2024-05-09T14:25:53.091Z,37.70
2024-05-09T14:28:26.162Z,36.20
2024-05-09T14:30:56.625Z,35.10
2024-05-09T14:33:30.735Z,34.30
2024-05-09T14:35:58.298Z,33.50
2024-05-09T14:38:30.323Z,32.60
2024-05-09T14:40:58.117Z,32.00
2024-05-09T14:43:29.490Z,31.30
2024-05-09T14:45:57.071Z,30.50
2024-05-09T14:48:31.542Z,29.90
2024-05-09T14:50:58.857Z,29.40
2024-05-09T14:53:28.670Z,29.00
2024-05-09T14:55:56.440Z,28.60
2024-05-09T14:58:26.467Z,28.10
2024-05-09T15:00:54.040Z,27.70
2024-05-09T15:03:24.164Z,27.40
2024-05-09T15:05:54.353Z,27.10
2024-05-09T15:08:24.871Z,26.70
2024-05-09T15:10:52.709Z,26.30
2024-05-09T15:13:23.838Z,26.00
2024-05-09T15:15:51.575Z,25.80
2024-05-09T15:18:22.117Z,25.60
2024-05-09T15:20:49.706Z,25.50
2024-05-09T15:23:22.695Z,25.40
2024-05-09T15:25:50.049Z,25.30
2024-05-09T15:28:20.140Z,25.20
2024-05-09T15:30:48.274Z,25.00
2024-05-09T15:33:18.350Z,24.90
2024-05-09T15:35:47.101Z,24.70
2024-05-09T15:38:18.574Z,24.60
2024-05-09T15:40:50.218Z,24.40
2024-05-09T15:43:20.505Z,24.30
2024-05-09T15:45:47.853Z,24.20
2024-05-09T15:48:17.931Z,24.00
2024-05-09T15:50:45.647Z,23.90
2024-05-09T15:53:15.697Z,23.80
2024-05-09T15:55:43.411Z,23.60
2024-05-09T15:58:16.964Z,23.40
2024-05-09T16:00:48.843Z,23.20
2024-05-09T16:03:18.358Z,23.00
2024-05-09T16:05:48.753Z,22.80
2024-05-09T16:08:16.754Z,22.60
2024-05-09T16:10:48.116Z,22.50
2024-05-09T16:13:19.797Z,22.40
2024-05-09T16:15:50.438Z,22.30
2024-05-09T16:18:17.978Z,22.30
2024-05-09T16:20:50.057Z,22.20
2024-05-09T16:23:18.024Z,22.10
2024-05-09T16:25:48.554Z,22.00
2024-05-09T16:28:19.874Z,21.80
2024-05-09T16:30:50.233Z,21.70
2024-05-09T16:33:21.052Z,21.60
2024-05-09T16:35:51.298Z,21.40
2024-05-09T16:38:19.080Z,21.40
2024-05-09T16:40:49.914Z,21.30
2024-05-09T16:43:20.128Z,21.20
2024-05-09T16:45:50.786Z,21.20
2024-05-09T16:48:18.366Z,21.10
2024-05-09T16:50:48.261Z,21.10
2024-05-09T16:53:15.834Z,21.10
2024-05-09T16:55:45.992Z,21.00
2024-05-09T16:58:13.696Z,20.90
2024-05-09T17:00:46.519Z,20.80
2024-05-09T17:03:15.524Z,20.70
2024-05-09T17:05:47.476Z,20.60
2024-05-09T17:08:16.897Z,20.60
2024-05-09T17:10:49.362Z,20.50
2024-05-09T17:13:20.375Z,20.40
2024-05-09T17:15:53.580Z,20.20
2024-05-09T17:18:23.770Z,20.20
2024-05-09T17:20:52.387Z,20.10
2024-05-09T17:23:22.489Z,19.90
2024-05-09T17:25:49.866Z,19.80
2024-05-09T17:28:20.449Z,19.70
2024-05-09T17:30:51.108Z,19.60
2024-05-09T17:33:21.136Z,19.50
2024-05-09T17:35:50.903Z,19.40
2024-05-09T17:38:22.955Z,19.30
2024-05-09T17:40:53.776Z,19.20
2024-05-09T17:43:21.676Z,19.10
2024-05-09T17:45:54.436Z,19.00
2024-05-09T17:48:22.528Z,19.00
2024-05-09T17:50:53.284Z,18.90
2024-05-09T17:53:20.716Z,18.80
2024-05-09T17:55:53.870Z,18.80
2024-05-09T17:58:21.589Z,18.70
2024-05-09T18:00:54.225Z,18.60
2024-05-09T18:03:23.507Z,18.50
2024-05-09T18:05:53.783Z,18.40
2024-05-09T18:08:21.140Z,18.20
2024-05-09T18:10:55.201Z,18.00
2024-05-09T18:13:23.149Z,17.90
2024-05-09T18:15:55.784Z,17.70
2024-05-09T18:18:23.651Z,17.50
2024-05-09T18:20:53.553Z,17.30
2024-05-09T18:23:21.009Z,17.20
2024-05-09T18:25:54.519Z,17.00
2024-05-09T18:28:22.568Z,16.90
2024-05-09T18:30:55.525Z,16.70
2024-05-09T18:33:24.592Z,16.60
2024-05-09T18:35:54.797Z,16.40
2024-05-09T18:38:25.617Z,16.30
2024-05-09T18:40:55.748Z,16.20
2024-05-09T18:43:28.900Z,16.00
2024-05-09T18:46:08.712Z,15.90
2024-05-09T18:48:36.191Z,15.80
2024-05-09T18:51:06.803Z,15.70
2024-05-09T18:53:34.230Z,15.60
2024-05-09T18:56:04.019Z,15.50
2024-05-09T18:58:31.322Z,15.40
2024-05-09T19:01:02.047Z,15.30
2024-05-09T19:03:32.348Z,15.20
2024-05-09T19:06:02.703Z,15.20
2024-05-09T19:08:30.136Z,15.10
2024-05-09T19:11:01.778Z,15.10
2024-05-09T19:13:29.449Z,15.00
2024-05-09T19:15:59.690Z,15.00
2024-05-09T19:18:28.531Z,15.00
2024-05-09T19:21:01.226Z,15.00
2024-05-09T19:23:29.022Z,15.00
2024-05-09T19:25:59.204Z,15.00
2024-05-09T19:28:26.842Z,15.00
2024-05-09T19:30:56.903Z,15.00
2024-05-09T19:33:24.517Z,15.00
2024-05-09T19:35:54.311Z,15.00
2024-05-09T19:38:24.315Z,15.00
2024-05-09T19:40:54.620Z,14.90
2024-05-09T19:43:22.105Z,15.00
2024-05-09T19:45:52.098Z,14.90
2024-05-09T19:48:21.061Z,14.90
2024-05-09T19:50:53.037Z,14.90
2024-05-09T19:53:25.059Z,14.80
2024-05-09T19:55:55.726Z,14.80
2024-05-09T19:58:23.243Z,14.70
2024-05-09T20:00:53.273Z,14.70
2024-05-09T20:03:20.833Z,14.70
2024-05-09T20:05:50.887Z,14.60
2024-05-09T20:08:18.347Z,14.50
2024-05-09T20:10:50.873Z,14.50
2024-05-09T20:13:18.471Z,14.40
2024-05-09T20:15:48.359Z,14.30
2024-05-09T20:18:17.958Z,14.30
2024-05-09T20:20:50.705Z,14.20
2024-05-09T20:23:19.460Z,14.10
2024-05-09T20:25:51.873Z,14.00
2024-05-09T20:28:19.188Z,13.90
2024-05-09T20:30:49.020Z,13.80
2024-05-09T20:33:16.943Z,13.70
2024-05-09T20:35:46.799Z,13.60
2024-05-09T20:38:14.279Z,13.50
2024-05-09T20:40:44.230Z,13.40
2024-05-09T20:43:14.260Z,13.30
2024-05-09T20:45:44.705Z,13.20
2024-05-09T20:48:12.224Z,13.20
2024-05-09T20:50:42.845Z,13.10
2024-05-09T20:53:11.720Z,13.10
2024-05-09T20:55:42.351Z,13.10
2024-05-09T20:58:10.513Z,13.00
2024-05-09T21:00:45.363Z,13.00
2024-05-09T21:03:16.168Z,13.00
2024-05-09T21:05:47.817Z,12.90
2024-05-09T21:08:16.001Z,12.90
2024-05-09T21:10:45.853Z,12.80
2024-05-09T21:13:13.387Z,12.80
2024-05-09T21:15:45.885Z,12.80
2024-05-09T21:18:13.519Z,12.80
2024-05-09T21:20:43.561Z,12.80
2024-05-09T21:23:10.997Z,12.80
2024-05-09T21:25:40.940Z,12.80
2024-05-09T21:28:08.361Z,12.80
2024-05-09T21:30:42.030Z,12.90
2024-05-09T21:33:14.678Z,12.90
2024-05-09T21:35:45.709Z,12.90
2024-05-09T21:38:14.752Z,12.90
2024-05-09T21:40:45.520Z,13.00
2024-05-09T21:43:13.250Z,13.00
2024-05-09T21:45:43.421Z,13.00
2024-05-09T21:48:13.805Z,13.00
2024-05-09T21:50:44.459Z,13.00
2024-05-09T21:53:12.642Z,13.10
2024-05-09T21:55:43.255Z,13.10
2024-05-09T21:58:11.711Z,13.10
2024-05-09T22:00:42.962Z,13.10
2024-05-09T22:03:14.453Z,13.10
2024-05-09T22:05:45.139Z,13.10
2024-05-09T22:08:13.052Z,13.10
2024-05-09T22:10:43.132Z,13.10
2024-05-09T22:13:10.562Z,13.10
2024-05-09T22:15:41.591Z,13.10
2024-05-09T22:18:10.333Z,13.10
2024-05-09T22:20:46.324Z,13.10
2024-05-09T22:23:15.192Z,13.10
2024-05-09T22:25:45.043Z,13.10
2024-05-09T22:28:15.377Z,13.10
2024-05-09T22:30:47.192Z,13.10
2024-05-09T22:33:15.659Z,13.10
2024-05-09T22:35:48.506Z,13.10
2024-05-09T22:38:15.995Z,13.10
2024-05-09T22:40:49.036Z,13.10
2024-05-09T22:43:18.583Z,13.10
2024-05-09T22:45:49.352Z,13.10
2024-05-09T22:48:16.938Z,13.00
2024-05-09T22:50:49.497Z,13.00
2024-05-09T22:53:16.865Z,13.00
2024-05-09T22:55:46.807Z,13.00
2024-05-09T22:58:14.378Z,13.00
2024-05-09T23:00:44.263Z,13.00
2024-05-09T23:03:11.875Z,13.00
2024-05-09T23:05:41.956Z,13.00
2024-05-09T23:08:11.859Z,13.00
2024-05-09T23:10:41.816Z,13.00
2024-05-09T23:13:09.468Z,13.00
2024-05-09T23:15:40.021Z,13.00
2024-05-09T23:18:09.123Z,13.00
2024-05-09T23:20:40.273Z,13.00
2024-05-09T23:23:08.828Z,13.00
2024-05-09T23:25:42.251Z,13.00
2024-05-09T23:28:12.886Z,13.00
2024-05-09T23:30:41.466Z,13.00
2024-05-09T23:33:15.015Z,13.00
2024-05-09T23:35:44.022Z,13.00
2024-05-09T23:38:15.471Z,13.00
2024-05-09T23:40:45.449Z,13.00
2024-05-09T23:43:16.459Z,13.00
2024-05-09T23:45:44.154Z,13.00
2024-05-09T23:48:14.129Z,13.00
2024-05-09T23:50:43.826Z,13.10
2024-05-09T23:53:14.317Z,13.00
2024-05-09T23:55:44.576Z,13.00
2024-05-09T23:58:15.520Z,13.10
